Nearby METAR Reports

 

KSJC - San Jose, California, USA
Distance from station: NE 14km
Updated: 16/09/2021 08:53
Partly cloudy
Partly cloudy
 Wind from SE
Wind: SE 13 km/h
Temperature: 14°C
Dew Point: 9°C
Humidity: 72%
Barometer: 1011.5 hPa
Clouds: Partly cloudy
Visibility: 13 km
Cloud details: Few Clouds 0 m
Partly cloudy 488 m
2021/09/16 15:53 KSJC 161553Z 14007KT 8SM FEW000 SCT016 14/09 A2987 RMK AO2 SLP114 T01440089
KNUQ - Moffett Nas/Mtn, California, USA
Distance from station: N 14km
Updated: 22/08/2021 04:40
NOT Current
Overcast
Overcast
 Wind from SSE
Wind: SSE 11 km/h
Temperature: 16°C
Dew Point: 12°C
Humidity: 77%
Barometer: 1009.8 hPa
Clouds: Overcast
Visibility: 16 km
Cloud details: Overcast 549 m
2021/08/22 11:40 KNUQ 221140Z AUTO 16006KT 10SM OVC018 16/12 A2982 RMK AO2
 
KPAO - Palo Alto, California, USA
Distance from station: NNW 23km
Updated: 16/09/2021 09:30
Partly cloudy
Partly cloudy
 Wind from varies
Wind: varies 7 km/h
Temperature: 16°C
Dew Point: 11°C
Humidity: 72%
Barometer: 1011.5 hPa
Clouds: Partly cloudy
Visibility: 13 km
Cloud details: Partly cloudy 457 m
2021/09/16 16:30 KPAO 161630Z VRB04KT 08SM SCT015 16/11 A2987
KRHV - San Jose/Reid, California, USA
Distance from station: ENE 19km
Updated: 16/09/2021 08:47
Mostly cloudy
Mostly cloudy
 Wind from varies
Wind: varies 7 km/h
Temperature: 13°C
Dew Point: 9°C
Humidity: 77%
Barometer: 1011.9 hPa
Clouds: Mostly cloudy
Visibility: 16 km
Cloud details: Mostly cloudy 335 m
Mostly cloudy 518 m
2021/09/16 15:47 KRHV 161547Z VRB04KT 10SM BKN011 BKN017 13/09 A2988
 
KOAK - Oakland, California, USA
Distance from station: NNW 50km
Updated: 16/09/2021 08:53
Overcast
Overcast
 Wind from S
Wind: S 6 km/h
Temperature: 16°C
Dew Point: 12°C
Humidity: 77%
Barometer: 1011.9 hPa
Clouds: Overcast
Visibility: 16 km
Cloud details: Partly cloudy 366 m
Overcast 549 m
2021/09/16 15:53 KOAK 161553Z 19003KT 10SM SCT012 OVC018 16/12 A2988 RMK AO2 SLP119 T01610117
KSQL - San Carlos Airpo, California, USA
Distance from station: NW 34km
Updated: 16/09/2021 08:51
Partly cloudy
Partly cloudy
 Wind from calm
Wind: Calm
Temperature: 16°C
Dew Point: 11°C
Humidity: 72%
Barometer: 1011.5 hPa
Clouds: Partly cloudy
Visibility: 13 km
Cloud details: Partly cloudy 518 m
2021/09/16 15:51 KSQL 161551Z 00000KT 8SM SCT017 16/11 A2987
 
KSFO - San Francisco, California, USA
Distance from station: NW 49km
Updated: 16/09/2021 08:56
Mostly cloudy
Mostly cloudy
 Wind from calm
Wind: Calm
Temperature: 15°C
Dew Point: 11°C
Humidity: 77%
Barometer: 1011.2 hPa
Clouds: Mostly cloudy
Visibility: 13 km
Cloud details: Few Clouds 213 m
Partly cloudy 427 m
Mostly cloudy 610 m
2021/09/16 15:56 KSFO 161556Z 00000KT 8SM FEW007 SCT014 BKN020 15/11 A2986 RMK AO2 SLP111 T01500111
KE16 - San Martin, California, USA
Distance from station: ESE 43km
Updated: 15/09/2021 10:35
NOT Current
Few Clouds
Few Clouds
 Wind from SE
Wind: SE 13 km/h
Temperature: 15°C
Dew Point: 12°C
Humidity: 82%
Barometer: 1014.9 hPa
Clouds: Few Clouds
Visibility: 16 km
Cloud details: Few Clouds 335 m
2021/09/15 17:35 KE16 151735Z AUTO 13007KT 10SM FEW011 15/12 A2997 RMK AO2 PWINO PNO
 
KWVI - Watsonville, California, USA
Distance from station: SSE 44km
Updated: 16/09/2021 08:53
Overcast
Overcast
 Wind from SW
Wind: SW 7 km/h
Temperature: 13°C
Dew Point: 10°C
Humidity: 82%
Barometer: 1012.5 hPa
Clouds: Overcast
Visibility: 16 km
Cloud details: Overcast 427 m
2021/09/16 15:53 KWVI 161553Z AUTO 22004KT 10SM OVC014 13/10 A2990 RMK AO2 SLP124 T01280100
KHAF - Half Moon Bay, California, USA
Distance from station: WNW 50km
Updated: 16/09/2021 09:35
Mist, Overcast
Mist, Overcast
 Wind from S
Wind: S 13 km/h
Temperature: 14°C
Dew Point: 12°C
Humidity: 88%
Barometer: 1011.9 hPa
Summary: Mist
Clouds: Overcast
Visibility: 10 km
Cloud details: Overcast 244 m
2021/09/16 16:35 KHAF 161635Z AUTO 18007KT 6SM BR OVC008 14/12 A2988 RMK AO2
 
KHWD - Hayward, California, USA
Distance from station: N 44km
Updated: 16/09/2021 08:54
Mostly cloudy
Mostly cloudy
 Wind from SW
Wind: SW 13 km/h
Temperature: 15°C
Dew Point: 11°C
Humidity: 77%
Barometer: 1011.2 hPa
Clouds: Mostly cloudy
Visibility: 16 km
Cloud details: Mostly cloudy 457 m
2021/09/16 15:54 KHWD 161554Z 23007KT 190V260 10SM BKN015 15/11 A2986 RMK AO2 SLP122 T01500111
KLVK - Livermore, California, USA
Distance from station: NNE 51km
Updated: 16/09/2021 09:26
Overcast
Overcast
 Wind from SW
Wind: SW 6 km/h
Temperature: 16°C
Dew Point: 12°C
Humidity: 77%
Barometer: 1010.8 hPa
Clouds: Overcast
Visibility: 16 km
Cloud details: Overcast 488 m
2021/09/16 16:26 KLVK 161626Z 22003KT 10SM OVC016 16/12 A2985 RMK AO2 T01610117